createdAt,value
2023-04-21T18:31:12.127Z,6.90
2023-04-21T18:32:12.096Z,8.30
2023-04-21T18:33:12.082Z,8.70
2023-04-21T18:34:11.900Z,9.00
2023-04-21T18:35:11.862Z,9.60
2023-04-21T18:36:11.808Z,9.60
2023-04-21T18:37:11.767Z,9.00
2023-04-21T18:38:11.936Z,9.80
2023-04-21T18:39:11.706Z,8.80
2023-04-21T18:40:11.636Z,9.10
2023-04-21T18:41:11.585Z,9.10
2023-04-21T18:42:11.553Z,9.30
2023-04-21T18:43:11.509Z,8.70
2023-04-21T18:44:11.457Z,8.90
2023-04-21T18:45:11.417Z,9.00
2023-04-21T18:46:11.600Z,8.60
2023-04-21T18:47:11.617Z,8.30
2023-04-21T18:48:11.541Z,8.60
2023-04-21T18:49:11.369Z,8.60
2023-04-21T18:50:11.223Z,8.00
2023-04-21T18:51:11.165Z,7.60
2023-04-21T18:52:11.115Z,8.20
2023-04-21T18:53:11.077Z,7.80
2023-04-21T18:54:11.029Z,6.80
2023-04-21T18:55:10.998Z,7.00
2023-04-21T18:56:10.953Z,7.30
2023-04-21T18:57:10.904Z,7.30
2023-04-21T18:58:10.876Z,7.60
2023-04-21T18:59:10.820Z,7.10
2023-04-21T19:00:10.794Z,7.50
2023-04-21T19:01:10.879Z,6.70
2023-04-21T19:02:10.742Z,5.90
2023-04-21T19:03:10.792Z,6.20
2023-04-21T19:04:11.061Z,6.00
2023-04-21T19:05:10.881Z,5.70
2023-04-21T19:06:10.520Z,6.20
2023-04-21T19:07:10.772Z,6.30
2023-04-21T19:08:11.213Z,6.20
2023-04-21T19:09:10.667Z,6.40
2023-04-21T19:10:10.370Z,7.40
2023-04-21T19:11:10.334Z,6.60
2023-04-21T19:12:10.276Z,6.70
2023-04-21T19:13:10.228Z,7.00
2023-04-21T19:14:10.199Z,6.60
2023-04-21T19:15:10.152Z,7.00
2023-04-21T19:16:10.144Z,7.00
2023-04-21T19:17:10.058Z,7.00
2023-04-21T19:18:10.038Z,7.40
2023-04-21T19:19:09.999Z,8.00
2023-04-21T19:20:09.954Z,8.30
2023-04-21T19:21:09.896Z,8.20
2023-04-21T19:22:09.845Z,8.20
2023-04-21T19:23:09.805Z,8.90
2023-04-21T19:24:09.776Z,8.60
2023-04-21T19:26:09.677Z,8.50
2023-04-21T19:27:09.643Z,8.10
2023-04-21T19:28:09.592Z,8.30
2023-04-21T19:29:09.546Z,7.70
2023-04-21T19:30:09.509Z,8.50
2023-04-21T19:31:09.465Z,7.80
2023-04-21T19:32:09.452Z,7.70
2023-04-21T19:33:13.261Z,7.80
2023-04-21T19:34:09.338Z,7.50
2023-04-21T19:35:09.351Z,7.80
2023-04-21T19:36:09.260Z,7.60
2023-04-21T19:37:09.210Z,7.40
2023-04-21T19:38:09.173Z,7.80
2023-04-21T19:39:09.128Z,7.80
2023-04-21T19:40:09.092Z,7.40
2023-04-21T19:41:09.041Z,7.80
2023-04-21T19:42:09.028Z,7.30
2023-04-21T19:43:09.003Z,7.50
2023-04-21T19:44:08.918Z,7.50
2023-04-21T19:45:09.074Z,6.80
2023-04-21T19:47:08.793Z,6.80
2023-04-21T19:50:08.882Z,7.30
2023-04-21T19:51:08.643Z,6.80
2023-04-21T19:52:08.584Z,6.90
2023-04-21T19:53:08.531Z,7.10
2023-04-21T19:54:12.051Z,6.80
2023-04-21T19:55:08.648Z,7.70
2023-04-21T19:57:08.364Z,6.40
2023-04-21T19:59:08.297Z,3.40
2023-04-21T20:05:43.043Z,2.20
2023-04-21T20:06:43.013Z,2.10
2023-04-21T20:07:42.952Z,2.10
2023-04-21T20:08:42.925Z,2.00
2023-04-21T20:09:42.867Z,2.10
2023-04-21T20:10:42.816Z,2.10
2023-04-21T20:11:42.796Z,2.20
2023-04-21T20:12:42.736Z,2.20
2023-04-21T20:13:42.686Z,2.30
2023-04-21T20:14:42.640Z,2.50
2023-04-21T20:15:42.656Z,1.90
2023-04-21T20:16:44.110Z,2.10
2023-04-21T20:17:42.516Z,1.70
2023-04-21T20:18:42.468Z,1.90
2023-04-21T20:19:42.425Z,2.20
2023-04-21T20:20:42.434Z,2.00
2023-04-21T20:21:42.344Z,2.30
2023-04-21T20:22:42.304Z,2.10
2023-04-21T20:23:42.249Z,2.20
2023-04-21T20:24:42.200Z,2.30
2023-04-21T20:25:42.156Z,2.30
2023-04-21T20:26:42.124Z,2.40
2023-04-21T20:27:42.066Z,2.10
2023-04-21T20:28:42.018Z,2.80
2023-04-21T20:29:41.978Z,2.50
2023-04-21T20:30:41.929Z,2.60
2023-04-21T20:31:41.923Z,2.70
2023-04-21T20:32:41.882Z,2.30
2023-04-21T20:33:41.819Z,2.70
2023-04-21T20:34:41.755Z,2.60
2023-04-21T20:35:41.709Z,2.50
2023-04-21T20:36:41.659Z,2.70
2023-04-21T20:37:41.615Z,2.60
2023-04-21T20:38:41.601Z,2.70
2023-04-21T20:39:41.531Z,2.70
2023-04-21T20:40:41.480Z,3.00
2023-04-21T20:41:41.441Z,2.60
2023-04-21T20:42:41.389Z,2.90
2023-04-21T20:43:41.348Z,2.60
2023-04-21T20:44:41.317Z,2.90
2023-04-21T20:45:41.338Z,2.50
2023-04-21T20:46:41.222Z,2.60
2023-04-21T20:47:41.168Z,2.70
2023-04-21T20:48:41.119Z,2.70
2023-04-21T20:49:41.344Z,3.10
2023-04-21T20:50:42.289Z,2.80
2023-04-21T20:51:40.994Z,3.10
2023-04-21T20:52:40.949Z,3.10
2023-04-21T20:53:40.900Z,3.10
2023-04-21T20:54:40.868Z,3.00
2023-04-21T20:55:40.807Z,3.50
2023-04-21T20:56:40.760Z,3.30
2023-04-21T20:57:40.721Z,3.90
2023-04-21T20:58:40.666Z,3.60
2023-04-21T20:59:41.023Z,3.50
2023-04-21T21:00:40.604Z,3.50
2023-04-21T21:01:40.549Z,3.20
2023-04-21T21:02:40.772Z,3.80
2023-04-21T21:03:40.642Z,3.50
2023-04-21T21:04:40.395Z,3.50
2023-04-21T21:05:40.354Z,3.40
2023-04-21T21:06:40.307Z,3.80
2023-04-21T21:07:40.265Z,3.40
2023-04-21T21:08:40.215Z,3.60
2023-04-21T21:09:40.511Z,3.10
2023-04-21T21:10:40.142Z,3.70
2023-04-21T21:12:40.035Z,3.80
2023-04-21T21:13:39.993Z,3.40
2023-04-21T21:14:39.948Z,3.80
2023-04-21T21:15:39.897Z,3.80
2023-04-21T21:16:39.904Z,3.70
2023-04-21T21:17:39.859Z,3.80
2023-04-21T21:18:39.764Z,3.80
2023-04-21T21:19:40.146Z,4.00
2023-04-21T21:20:39.691Z,3.90
2023-04-21T21:21:39.628Z,4.10
2023-04-21T21:22:39.584Z,4.40
2023-04-21T21:23:39.533Z,4.20
2023-04-21T21:24:39.493Z,4.00
2023-04-21T21:25:39.442Z,4.30
2023-04-21T21:26:42.396Z,3.70
2023-04-21T21:27:39.349Z,4.40
2023-04-21T21:28:39.312Z,4.00
2023-04-21T21:29:39.597Z,4.40
2023-04-21T21:30:39.212Z,4.40
2023-04-21T21:31:39.222Z,5.00
2023-04-21T21:32:39.132Z,4.70
2023-04-21T21:33:39.076Z,4.70
2023-04-21T21:34:39.032Z,4.70
2023-04-21T21:35:38.988Z,5.20
2023-04-21T21:36:38.938Z,5.30
2023-04-21T21:39:39.088Z,6.00
2023-04-21T21:40:38.761Z,5.50
2023-04-21T21:41:38.733Z,5.60
2023-04-21T21:42:38.680Z,5.10
2023-04-21T21:43:38.618Z,6.00
2023-04-21T21:45:21.959Z,5.30
2023-04-21T21:49:30.925Z,5.60
2023-04-21T21:50:30.857Z,5.60
2023-04-21T21:51:30.823Z,5.40
2023-04-21T21:52:30.758Z,5.40
2023-04-21T21:53:30.721Z,5.10
2023-04-21T21:54:30.666Z,5.50
2023-04-21T21:55:30.636Z,5.60
2023-04-21T21:56:30.580Z,5.50
2023-04-21T21:57:30.587Z,5.80
2023-04-21T21:58:30.501Z,6.30
2023-04-21T21:59:30.442Z,5.60
2023-04-21T22:00:30.388Z,6.00
2023-04-21T22:01:30.390Z,5.10
2023-04-21T22:02:30.347Z,5.80
2023-04-21T22:03:30.551Z,5.60
2023-04-21T22:04:30.214Z,6.20
2023-04-21T22:05:30.163Z,5.70
2023-04-21T22:06:30.122Z,6.30
2023-04-21T22:07:30.067Z,5.80
2023-04-21T22:08:30.028Z,5.90
2023-04-21T22:09:29.983Z,6.00
2023-04-21T22:10:29.928Z,6.30
2023-04-21T22:11:29.886Z,6.20
2023-04-21T22:12:29.839Z,6.30
2023-04-21T22:13:29.799Z,6.60
2023-04-21T22:14:29.767Z,6.90
2023-04-21T22:15:29.703Z,6.70
2023-04-21T22:16:29.743Z,6.90
2023-04-21T22:17:29.796Z,7.40
2023-04-21T22:18:29.564Z,7.10
2023-04-21T22:19:29.517Z,7.00
2023-04-21T22:20:29.469Z,7.40
2023-04-21T22:21:29.422Z,7.20
2023-04-21T22:22:29.375Z,6.50
2023-04-21T22:23:29.333Z,7.20
2023-04-21T22:24:29.287Z,7.00
2023-04-21T22:25:29.243Z,7.30
2023-04-21T22:26:29.196Z,7.20
2023-04-21T22:28:12.542Z,6.60
2023-04-21T22:29:12.502Z,7.20
2023-04-21T22:30:12.470Z,7.20
2023-04-21T22:31:12.472Z,7.30
2023-04-21T22:32:12.366Z,7.50
2023-04-21T22:33:12.377Z,8.00
2023-04-21T22:34:12.268Z,7.50
2023-04-21T22:35:12.220Z,7.70
2023-04-21T22:36:12.175Z,7.90
2023-04-21T22:37:12.126Z,7.90
2023-04-21T22:38:12.100Z,9.30
2023-04-21T22:39:12.037Z,8.90
2023-04-21T22:40:12.025Z,9.30
2023-04-21T22:41:11.941Z,8.50
2023-04-21T22:42:11.897Z,8.90
2023-04-21T22:43:11.852Z,8.80
2023-04-21T22:44:11.803Z,9.30
2023-04-21T22:45:11.766Z,8.60
2023-04-21T22:46:11.879Z,7.80
2023-04-21T22:47:11.701Z,8.30
2023-04-21T22:48:11.666Z,8.20
2023-04-21T22:49:11.572Z,7.90
2023-04-21T22:50:11.531Z,7.80
2023-04-21T22:51:11.475Z,7.60
2023-04-21T22:52:11.435Z,7.50
2023-04-21T22:53:11.383Z,7.80
2023-04-21T22:54:11.336Z,7.20
2023-04-21T22:55:11.290Z,7.60
2023-04-21T22:56:11.242Z,7.80
2023-04-21T22:57:11.190Z,7.80
2023-04-21T22:58:12.166Z,7.80
2023-04-21T22:59:11.099Z,8.20
2023-04-21T23:00:11.088Z,8.40
2023-04-21T23:01:11.020Z,8.00
2023-04-21T23:02:11.119Z,8.40
2023-04-21T23:03:11.048Z,8.40
2023-04-21T23:04:11.192Z,7.80
2023-04-21T23:05:10.821Z,7.80
2023-04-21T23:06:10.776Z,8.90
2023-04-21T23:07:10.731Z,8.00
2023-04-21T23:08:10.690Z,8.50
2023-04-21T23:09:10.634Z,8.60
2023-04-21T23:10:10.593Z,8.70
2023-04-21T23:11:10.542Z,8.20
2023-04-21T23:12:10.495Z,7.70
2023-04-21T23:13:10.451Z,7.90
2023-04-21T23:14:10.406Z,8.20
2023-04-21T23:15:10.357Z,8.30
2023-04-21T23:16:10.339Z,8.30
2023-04-21T23:17:10.261Z,8.20
2023-04-21T23:18:10.312Z,9.40
2023-04-21T23:19:10.170Z,9.20
2023-04-21T23:20:10.138Z,9.50
2023-04-21T23:21:10.078Z,8.60
2023-04-21T23:22:10.032Z,8.00
2023-04-21T23:23:09.980Z,8.90
2023-04-21T23:24:09.937Z,8.40
2023-04-21T23:25:09.888Z,8.50
2023-04-21T23:26:09.843Z,8.30
2023-04-21T23:27:09.796Z,8.50
2023-04-21T23:28:09.764Z,8.50
2023-04-21T23:29:09.701Z,8.80
2023-04-21T23:30:09.657Z,7.80
2023-04-21T23:31:09.610Z,8.50
2023-04-21T23:32:09.654Z,8.20
2023-04-21T23:33:09.545Z,8.70
2023-04-21T23:34:09.489Z,8.60
2023-04-21T23:36:09.372Z,8.50
2023-04-21T23:37:09.325Z,8.40
2023-04-21T23:38:09.280Z,8.50
2023-04-21T23:39:09.247Z,8.70
2023-04-21T23:40:09.290Z,9.30
2023-04-21T23:41:09.145Z,9.20
2023-04-21T23:42:09.103Z,9.20
2023-04-21T23:43:09.044Z,9.40
2023-04-21T23:44:08.994Z,9.20
2023-04-21T23:45:08.959Z,9.40
2023-04-21T23:46:08.954Z,9.30
2023-04-21T23:47:08.862Z,9.70
2023-04-21T23:48:08.910Z,9.40
2023-04-21T23:49:08.760Z,10.20
2023-04-21T23:50:08.743Z,9.70
2023-04-21T23:51:08.720Z,10.00
2023-04-21T23:52:08.624Z,9.40
2023-04-21T23:53:08.574Z,9.30
2023-04-21T23:54:08.530Z,9.80
2023-04-21T23:55:08.481Z,8.50
2023-04-21T23:56:08.431Z,9.10
2023-04-21T23:57:08.386Z,8.20
2023-04-21T23:58:08.372Z,9.20
2023-04-21T23:59:08.326Z,8.90
